Time;durP1;ratioP1;P1;durP2;ratioP2;P2;SDS_P1;SDS_P2;PMS_P1;PMS_P2;Temp;Humidity;BMP_temperature;BMP_pressure;BME280_temperature;BME280_humidity;BME280_pressure;Samples;Min_cycle;Max_cycle;Signal;HPM_P1;HPM_P2
2022/04/16 00:00:11;;;;;;;3.00;2.03;;;16.60;58.80;;;;;;4998063;28;20046;-69
2022/04/16 00:02:37;;;;;;;3.03;2.20;;;16.60;58.80;;;;;;4988837;28;20470;-69
2022/04/16 00:05:04;;;;;;;2.97;2.15;;;16.60;58.80;;;;;;4997785;28;20445;-69
2022/04/16 00:07:29;;;;;;;2.95;2.10;;;16.60;58.80;;;;;;5000060;28;20108;-70
2022/04/16 00:09:55;;;;;;;3.35;2.13;;;16.60;58.80;;;;;;5017386;28;20069;-71
2022/04/16 00:12:21;;;;;;;3.72;2.53;;;16.60;58.90;;;;;;5013684;28;20366;-71
2022/04/16 00:14:46;;;;;;;3.03;2.45;;;16.60;59.00;;;;;;5014903;28;20112;-71
2022/04/16 00:17:13;;;;;;;3.60;2.45;;;16.50;59.20;;;;;;5006058;28;20053;-74
2022/04/16 00:19:40;;;;;;;4.68;2.40;;;16.50;59.40;;;;;;4997759;28;20092;-71
2022/04/16 00:22:10;;;;;;;3.50;2.13;;;16.50;59.60;;;;;;5012098;28;20107;-71
2022/04/16 00:24:36;;;;;;;5.68;2.67;;;16.50;59.50;;;;;;5014506;28;20042;-70
2022/04/16 00:27:02;;;;;;;8.57;2.65;;;16.50;59.70;;;;;;5004427;28;20052;-70
2022/04/16 00:29:30;;;;;;;3.00;2.50;;;16.40;60.30;;;;;;4995289;28;20113;-70
2022/04/16 00:31:56;;;;;;;7.55;2.72;;;16.40;59.80;;;;;;4990658;28;20442;-70
2022/04/16 00:34:21;;;;;;;4.28;2.15;;;16.40;60.00;;;;;;4997192;28;20062;-70
2022/04/16 00:36:48;;;;;;;3.15;2.30;;;16.50;60.00;;;;;;4996919;28;20065;-69
2022/04/16 00:39:13;;;;;;;4.15;2.25;;;16.40;60.00;;;;;;4997559;28;20046;-70
2022/04/16 00:41:39;;;;;;;7.22;2.53;;;16.40;60.10;;;;;;4979214;28;20053;-71
2022/04/16 00:44:06;;;;;;;4.25;2.45;;;16.40;60.10;;;;;;4997280;28;20539;-71
2022/04/16 00:46:32;;;;;;;4.40;2.50;;;16.40;60.10;;;;;;4997471;28;20374;-70
2022/04/16 00:48:58;;;;;;;4.70;2.97;;;16.40;60.10;;;;;;4980510;28;20050;-71
2022/04/16 00:51:24;;;;;;;3.15;1.95;;;16.40;60.10;;;;;;4996658;28;20057;-70
2022/04/16 00:53:50;;;;;;;3.40;2.28;;;16.40;60.10;;;;;;5000533;28;20077;-70
2022/04/16 00:56:16;;;;;;;3.22;2.50;;;16.40;60.10;;;;;;5016231;28;20123;-70
2022/04/16 00:58:42;;;;;;;3.38;2.15;;;16.40;60.10;;;;;;4998752;28;20486;-71
2022/04/16 01:01:08;;;;;;;2.67;2.08;;;16.40;60.10;;;;;;4982739;28;20064;-70
2022/04/16 01:03:34;;;;;;;2.60;2.10;;;16.40;60.10;;;;;;5015315;28;20050;-70
2022/04/16 01:06:00;;;;;;;5.05;2.80;;;16.40;60.10;;;;;;5011284;28;20516;-70
2022/04/16 01:08:26;;;;;;;3.58;2.40;;;16.40;60.10;;;;;;4996943;28;20125;-71
2022/04/16 01:10:52;;;;;;;4.85;2.78;;;16.40;60.20;;;;;;4996983;28;20113;-71
2022/04/16 01:13:18;;;;;;;4.50;2.70;;;16.40;60.20;;;;;;4993955;28;20059;-71
2022/04/16 01:15:47;;;;;;;4.13;2.15;;;16.40;60.20;;;;;;4996709;28;20472;-71
2022/04/16 01:18:13;;;;;;;4.25;2.45;;;16.40;60.20;;;;;;4996874;28;20038;-70
2022/04/16 01:20:41;;;;;;;3.83;2.58;;;16.40;60.20;;;;;;4996678;28;20080;-71
2022/04/16 01:23:07;;;;;;;3.45;2.38;;;16.30;60.20;;;;;;4996702;28;20057;-71
2022/04/16 01:25:35;;;;;;;3.42;2.47;;;16.30;60.50;;;;;;5004948;28;20034;-70
2022/04/16 01:28:01;;;;;;;3.55;2.50;;;16.30;60.40;;;;;;5004742;28;20054;-71
2022/04/16 01:30:28;;;;;;;4.10;3.00;;;16.30;60.50;;;;;;4996819;28;20433;-70
2022/04/16 01:32:54;;;;;;;5.45;2.83;;;16.30;60.50;;;;;;5014234;28;20061;-70
2022/04/16 01:35:20;;;;;;;4.28;2.45;;;16.30;60.50;;;;;;5015431;28;20442;-71
2022/04/16 01:37:46;;;;;;;2.85;1.90;;;16.30;60.50;;;;;;5015221;28;20183;-70
2022/04/16 01:40:14;;;;;;;3.03;2.13;;;16.20;60.40;;;;;;5015511;28;20054;-71
2022/04/16 01:42:41;;;;;;;3.25;1.88;;;16.30;60.40;;;;;;5015273;28;20461;-70
2022/04/16 01:45:11;;;;;;;3.10;2.20;;;16.30;60.40;;;;;;5015495;28;20481;-71
2022/04/16 01:47:38;;;;;;;2.83;1.85;;;16.20;60.40;;;;;;4999698;28;20042;-71
2022/04/16 01:50:09;;;;;;;2.63;1.90;;;16.20;60.50;;;;;;4996028;28;20115;-71
2022/04/16 01:52:36;;;;;;;2.85;2.28;;;16.20;60.40;;;;;;4996019;28;20046;-71
2022/04/16 01:55:03;;;;;;;3.05;2.17;;;16.20;60.50;;;;;;4996150;28;20424;-71
2022/04/16 01:57:28;;;;;;;4.10;2.20;;;16.20;60.50;;;;;;4996235;28;20060;-70
2022/04/16 01:59:54;;;;;;;5.03;3.13;;;16.20;60.60;;;;;;4996053;28;20457;-71
2022/04/16 02:02:20;;;;;;;3.38;2.42;;;16.10;60.60;;;;;;5001631;28;20054;-71
2022/04/16 02:04:46;;;;;;;3.97;3.13;;;16.10;60.60;;;;;;4991768;28;20125;-70
2022/04/16 02:07:13;;;;;;;3.13;2.60;;;16.10;60.70;;;;;;4999406;28;20121;-71
2022/04/16 02:09:39;;;;;;;5.15;3.05;;;16.10;60.80;;;;;;5015075;28;20050;-71
2022/04/16 02:12:06;;;;;;;5.45;2.90;;;16.10;60.90;;;;;;5014701;28;20453;-71
2022/04/16 02:14:32;;;;;;;5.15;2.92;;;16.10;60.90;;;;;;5014825;28;20046;-70
2022/04/16 02:16:59;;;;;;;3.95;2.65;;;16.10;61.50;;;;;;5014037;28;20050;-70
2022/04/16 02:19:25;;;;;;;5.18;3.40;;;16.10;60.90;;;;;;5014145;28;20525;-70
2022/04/16 02:21:51;;;;;;;4.15;2.95;;;16.10;60.90;;;;;;5013270;28;20053;-71
2022/04/16 02:24:17;;;;;;;4.68;2.75;;;16.10;60.90;;;;;;4995721;28;20046;-71
2022/04/16 02:26:46;;;;;;;4.88;3.22;;;16.10;60.90;;;;;;4989834;28;20057;-71
2022/04/16 02:29:13;;;;;;;4.15;2.83;;;16.00;60.90;;;;;;4995202;28;20050;-70
2022/04/16 02:31:39;;;;;;;4.28;2.55;;;16.00;60.90;;;;;;5000785;28;20104;-71
2022/04/16 02:34:07;;;;;;;4.28;2.75;;;16.00;60.90;;;;;;5014090;28;20100;-71
2022/04/16 02:36:33;;;;;;;4.35;3.10;;;16.00;61.00;;;;;;5014728;28;20050;-71
2022/04/16 02:39:00;;;;;;;3.97;2.80;;;16.10;61.10;;;;;;5014511;28;20050;-71
2022/04/16 02:41:26;;;;;;;4.25;2.60;;;16.00;61.00;;;;;;5014318;28;20053;-71
2022/04/16 02:43:55;;;;;;;3.97;2.72;;;16.00;61.00;;;;;;5014671;28;20053;-70
2022/04/16 02:49:06;;;;;;;4.32;3.03;;;16.10;61.10;;;;;;4996946;28;20042;-71
2022/04/16 02:51:32;;;;;;;3.92;2.88;;;16.10;61.10;;;;;;5014795;28;20080;-70
2022/04/16 02:53:57;;;;;;;3.75;2.75;;;16.00;61.00;;;;;;5014277;28;20081;-71
2022/04/16 02:56:24;;;;;;;3.70;2.72;;;16.00;61.10;;;;;;5014157;28;20485;-70
2022/04/16 02:58:49;;;;;;;3.88;2.78;;;16.00;61.10;;;;;;5008632;28;20038;-70
2022/04/16 03:01:15;;;;;;;3.40;2.55;;;16.00;61.10;;;;;;4994866;28;20054;-71
2022/04/16 03:03:41;;;;;;;2.83;2.50;;;16.00;61.20;;;;;;4995215;28;20046;-71
2022/04/16 03:06:07;;;;;;;3.33;2.40;;;16.00;61.10;;;;;;5002485;28;20057;-71
2022/04/16 03:08:33;;;;;;;4.25;3.08;;;16.00;61.10;;;;;;5014383;28;20082;-71
2022/04/16 03:11:00;;;;;;;4.40;2.97;;;16.00;61.20;;;;;;4997131;28;20049;-69
2022/04/16 03:13:26;;;;;;;3.28;2.50;;;16.00;61.20;;;;;;5013922;28;20049;-70
2022/04/16 03:18:37;;;;;;;5.80;3.13;;;15.90;61.80;;;;;;4986107;28;20054;-70
2022/04/16 03:21:03;;;;;;;4.93;3.20;;;15.90;61.30;;;;;;4995260;28;20084;-70
2022/04/16 03:23:29;;;;;;;4.53;3.40;;;15.90;61.40;;;;;;4994976;28;20416;-70
2022/04/16 03:25:58;;;;;;;4.15;3.40;;;15.90;61.50;;;;;;4995059;28;20042;-71
2022/04/16 03:28:24;;;;;;;4.72;3.28;;;15.80;61.50;;;;;;4995810;28;20078;-70
2022/04/16 03:30:50;;;;;;;5.38;3.45;;;15.90;61.50;;;;;;4986105;28;20085;-70
2022/04/16 03:33:16;;;;;;;3.65;2.60;;;15.90;61.50;;;;;;4981722;28;20057;-71
2022/04/16 03:35:41;;;;;;;4.18;3.22;;;15.90;61.50;;;;;;5014407;28;20425;-70
2022/04/16 03:38:07;;;;;;;5.13;3.85;;;15.80;61.50;;;;;;5013085;28;20103;-71
2022/04/16 03:40:33;;;;;;;5.15;3.72;;;15.80;61.60;;;;;;5017401;28;20125;-70
2022/04/16 03:43:01;;;;;;;4.95;3.40;;;15.80;61.60;;;;;;5017563;28;20103;-71
2022/04/16 03:45:34;;;;;;;4.13;3.15;;;15.80;61.60;;;;;;5017195;28;20099;-70
2022/04/16 03:48:02;;;;;;;5.57;4.15;;;15.80;61.60;;;;;;5017645;28;20041;-70
2022/04/16 03:50:29;;;;;;;4.45;3.85;;;15.70;61.60;;;;;;5017194;28;20065;-70
2022/04/16 03:52:56;;;;;;;4.60;3.35;;;15.70;61.60;;;;;;5017525;28;20057;-71
2022/04/16 04:00:55;;;;;;;5.45;3.53;;;15.70;61.60;;;;;;5017359;28;20049;-71
2022/04/16 04:03:21;;;;;;;5.65;4.18;;;15.70;61.70;;;;;;4998035;28;20058;-70
2022/04/16 04:05:53;;;;;;;5.53;3.25;;;15.70;61.70;;;;;;4998128;28;20203;-69
2022/04/16 04:08:20;;;;;;;6.10;4.53;;;15.70;61.70;;;;;;4997559;28;20100;-69
2022/04/16 04:10:47;;;;;;;5.32;4.32;;;15.70;61.60;;;;;;4998286;28;20108;-70
2022/04/16 04:13:13;;;;;;;5.18;3.97;;;15.70;61.70;;;;;;5000678;28;20042;-70
2022/04/16 04:15:40;;;;;;;4.90;3.90;;;15.60;61.70;;;;;;5013074;28;20054;-69
2022/04/16 04:18:06;;;;;;;6.18;4.28;;;15.60;61.70;;;;;;4997772;28;20065;-70
2022/04/16 04:20:32;;;;;;;4.90;4.20;;;15.60;61.70;;;;;;4997868;28;20462;-71
2022/04/16 04:22:58;;;;;;;5.70;3.95;;;15.60;61.80;;;;;;5015507;28;20073;-71
2022/04/16 04:25:23;;;;;;;6.93;4.07;;;15.60;61.80;;;;;;5017132;28;20120;-71
2022/04/16 04:27:49;;;;;;;5.45;4.40;;;15.60;61.80;;;;;;5016691;28;20053;-70
2022/04/16 04:30:15;;;;;;;5.38;4.28;;;15.60;61.90;;;;;;5012897;28;20050;-71
2022/04/16 04:32:41;;;;;;;4.70;4.03;;;15.60;61.90;;;;;;4997650;28;20042;-70
2022/04/16 04:35:09;;;;;;;7.20;5.10;;;15.60;61.90;;;;;;4997452;28;20367;-70
2022/04/16 04:37:35;;;;;;;7.10;4.25;;;15.50;61.90;;;;;;4997854;28;20374;-70
2022/04/16 04:40:01;;;;;;;5.20;4.22;;;15.50;61.90;;;;;;4998935;28;20046;-70
2022/04/16 04:42:29;;;;;;;6.43;4.22;;;15.50;61.90;;;;;;5016407;28;20104;-71
2022/04/16 04:44:55;;;;;;;5.80;4.35;;;15.50;61.90;;;;;;5016077;28;20049;-70
2022/04/16 04:47:22;;;;;;;5.97;4.38;;;15.40;61.90;;;;;;5004700;28;20042;-70
2022/04/16 04:49:48;;;;;;;7.13;5.13;;;15.40;62.00;;;;;;4997544;28;20050;-69
2022/04/16 04:52:40;;;;;;;13.15;8.48;;;15.50;61.80;;;;;;4997313;28;20053;-72
2022/04/16 04:55:12;;;;;;;17.70;10.13;;;15.50;60.90;;;;;;4993716;28;20069;-71
2022/04/16 04:57:37;;;;;;;12.25;8.77;;;15.40;60.10;;;;;;5014493;28;20472;-72
2022/04/16 05:00:05;;;;;;;12.95;8.48;;;15.40;60.10;;;;;;4988197;28;20042;-72
2022/04/16 05:02:45;;;;;;;11.77;8.15;;;15.40;60.30;;;;;;4996488;28;20389;-72
2022/04/16 05:05:11;;;;;;;10.93;8.07;;;15.40;60.50;;;;;;5014725;28;20061;-72
2022/04/16 05:07:37;;;;;;;11.35;6.32;;;15.40;60.40;;;;;;5016019;28;20053;-72
2022/04/16 05:10:04;;;;;;;9.02;5.72;;;15.60;60.20;;;;;;5015686;28;20054;-71
2022/04/16 05:12:30;;;;;;;7.60;4.70;;;15.90;60.00;;;;;;5015939;28;20046;-72
2022/04/16 05:14:55;;;;;;;6.55;4.72;;;16.10;59.60;;;;;;5015939;28;20046;-71
2022/04/16 05:17:21;;;;;;;8.82;4.72;;;16.40;59.30;;;;;;5019695;28;20090;-72
2022/04/16 05:19:47;;;;;;;7.47;4.68;;;16.60;59.00;;;;;;5011555;28;20050;-72
2022/04/16 05:22:12;;;;;;;5.07;4.40;;;16.70;58.80;;;;;;4996812;28;20117;-72
2022/04/16 05:24:38;;;;;;;5.78;3.85;;;16.80;58.60;;;;;;4996852;28;20430;-73
2022/04/16 05:27:04;;;;;;;6.97;4.30;;;16.90;58.50;;;;;;4996667;28;20039;-72
2022/04/16 05:29:48;;;;;;;5.18;3.15;;;16.90;58.50;;;;;;5009364;28;20050;-72
2022/04/16 05:32:19;;;;;;;;;;;16.90;58.40;;;;;;4981892;28;20089;-72
2022/04/16 05:34:45;;;;;;;5.40;3.47;;;16.90;58.40;;;;;;4996250;28;19921;-73
2022/04/16 05:37:10;;;;;;;6.55;3.38;;;16.90;58.50;;;;;;5002635;28;20060;-73
2022/04/16 05:39:38;;;;;;;3.58;3.03;;;16.90;58.50;;;;;;5006363;28;20050;-72
2022/04/16 05:42:04;;;;;;;5.20;3.28;;;17.00;58.50;;;;;;4999192;28;20427;-72
2022/04/16 05:44:30;;;;;;;5.18;3.00;;;17.00;58.80;;;;;;4996338;28;20045;-72
2022/04/16 05:46:56;;;;;;;6.18;3.03;;;17.00;58.50;;;;;;4994815;28;20041;-72
2022/04/16 05:49:21;;;;;;;3.67;2.50;;;17.10;58.50;;;;;;4983351;28;20049;-72
2022/04/16 05:51:47;;;;;;;3.65;2.75;;;17.10;58.50;;;;;;4996455;28;20050;-72
2022/04/16 05:54:13;;;;;;;6.15;3.03;;;17.10;58.40;;;;;;5002401;28;20049;-72
2022/04/16 05:56:39;;;;;;;5.30;3.00;;;17.20;58.30;;;;;;5010966;28;20126;-73
2022/04/16 05:59:06;;;;;;;3.30;2.53;;;17.30;58.20;;;;;;5014642;28;20042;-74
2022/04/16 06:01:32;;;;;;;3.88;2.75;;;17.40;58.10;;;;;;5011653;28;20077;-76
2022/04/16 06:03:58;;;;;;;3.90;2.78;;;17.50;57.90;;;;;;4995751;28;20062;-73
2022/04/16 06:06:23;;;;;;;3.92;2.58;;;17.60;57.80;;;;;;4995780;28;20097;-74
2022/04/16 06:08:49;;;;;;;4.72;2.78;;;17.60;57.70;;;;;;5003713;28;20030;-72
2022/04/16 06:11:18;;;;;;;10.85;7.63;;;17.70;57.80;;;;;;5002071;28;20045;-71
2022/04/16 06:13:44;;;;;;;7.22;2.92;;;17.40;56.70;;;;;;5002600;28;20046;-70
2022/04/16 06:16:10;;;;;;;4.70;3.78;;;17.40;58.20;;;;;;5009795;28;20046;-73
2022/04/16 06:18:36;;;;;;;5.38;3.50;;;17.50;58.40;;;;;;4995522;28;20105;-72
2022/04/16 06:21:02;;;;;;;7.03;4.00;;;17.60;58.30;;;;;;4995722;28;20054;-73
2022/04/16 06:23:28;;;;;;;5.07;3.95;;;17.70;58.30;;;;;;4995787;28;20054;-73
2022/04/16 06:25:53;;;;;;;7.15;4.57;;;17.70;58.20;;;;;;5003395;28;20053;-72
2022/04/16 06:28:19;;;;;;;7.95;3.85;;;17.80;58.20;;;;;;5001120;28;20130;-72
2022/04/16 06:30:45;;;;;;;6.45;3.75;;;17.80;58.20;;;;;;4980071;28;20442;-73
2022/04/16 06:33:10;;;;;;;6.28;4.05;;;17.80;58.20;;;;;;4995114;28;20042;-72
2022/04/16 06:35:36;;;;;;;6.35;4.53;;;17.80;58.10;;;;;;5003332;28;20523;-73
2022/04/16 06:38:02;;;;;;;4.78;4.28;;;17.80;58.10;;;;;;4997171;28;20052;-74
2022/04/16 06:40:29;;;;;;;4.43;3.97;;;17.70;58.10;;;;;;5014470;28;20060;-71
2022/04/16 06:42:54;;;;;;;7.18;5.40;;;17.70;58.20;;;;;;5022709;28;20123;-71
2022/04/16 06:45:20;;;;;;;9.20;6.57;;;17.70;58.00;;;;;;5005719;28;20461;-72
2022/04/16 06:47:46;;;;;;;8.00;6.22;;;17.70;57.70;;;;;;5014262;28;20037;-72
2022/04/16 06:50:11;;;;;;;17.42;7.63;;;17.70;57.70;;;;;;5014143;28;20131;-74
2022/04/16 06:52:37;;;;;;;10.88;6.30;;;17.60;57.80;;;;;;5014449;28;20050;-71
2022/04/16 06:55:04;;;;;;;11.00;6.47;;;17.60;57.90;;;;;;5014177;28;20439;-75
2022/04/16 06:57:30;;;;;;;11.45;6.70;;;17.60;58.10;;;;;;5014142;28;20050;-75
2022/04/16 06:59:56;;;;;;;8.70;5.53;;;17.60;58.50;;;;;;4980051;28;20050;-73
2022/04/16 07:02:21;;;;;;;24.17;8.02;;;17.60;58.90;;;;;;4994853;28;20051;-74
2022/04/16 07:04:47;;;;;;;11.48;8.23;;;17.60;60.70;;;;;;4991777;28;20065;-73
2022/04/16 07:07:13;;;;;;;15.65;8.43;;;17.60;61.40;;;;;;4999104;28;20121;-74
2022/04/16 07:09:39;;;;;;;12.60;8.93;;;17.50;61.00;;;;;;4999257;28;20046;-69
2022/04/16 07:12:07;;;;;;;17.25;10.00;;;17.50;60.30;;;;;;4979490;28;20053;-69
2022/04/16 07:14:33;;;;;;;15.95;9.77;;;17.50;62.10;;;;;;4997540;28;20042;-70
2022/04/16 07:17:00;;;;;;;30.00;9.90;;;17.50;62.10;;;;;;4998423;28;20375;-69
2022/04/16 07:19:30;;;;;;;17.58;10.00;;;17.50;62.70;;;;;;5017822;28;20046;-69
2022/04/16 07:21:57;;;;;;;19.70;10.13;;;17.50;62.60;;;;;;5017832;28;20045;-69
2022/04/16 07:24:24;;;;;;;14.90;8.82;;;17.40;61.90;;;;;;5007192;28;20347;-70
2022/04/16 07:26:53;;;;;;;13.10;9.63;;;17.40;61.40;;;;;;4999295;28;20054;-69
2022/04/16 07:29:20;;;;;;;11.07;7.95;;;17.30;60.90;;;;;;4999323;28;20097;-70
2022/04/16 07:31:45;;;;;;;11.38;8.43;;;17.30;59.20;;;;;;4982121;28;20070;-72
2022/04/16 07:34:11;;;;;;;11.43;8.10;;;17.30;57.90;;;;;;4999175;28;20038;-70
2022/04/16 07:36:37;;;;;;;11.90;7.25;;;17.20;57.80;;;;;;4998949;28;20120;-69
2022/04/16 07:39:03;;;;;;;14.80;6.47;;;17.10;57.80;;;;;;4982092;28;20058;-70
2022/04/16 07:41:28;;;;;;;12.13;5.93;;;17.20;58.20;;;;;;4999009;28;20058;-69
2022/04/16 07:43:55;;;;;;;12.82;5.55;;;17.30;58.20;;;;;;4998895;28;20050;-75
2022/04/16 07:46:22;;;;;;;13.20;6.05;;;17.60;58.40;;;;;;4999121;28;20062;-70
2022/04/16 07:48:48;;;;;;;13.40;7.15;;;17.40;57.80;;;;;;4998530;28;20120;-70
2022/04/16 07:51:14;;;;;;;17.52;6.88;;;17.20;57.90;;;;;;4998603;28;20046;-70
2022/04/16 07:53:39;;;;;;;11.75;6.50;;;17.00;58.60;;;;;;5002475;28;20045;-70
2022/04/16 07:56:05;;;;;;;11.38;6.30;;;16.90;59.00;;;;;;5017495;28;20077;-69
2022/04/16 07:58:31;;;;;;;11.05;5.05;;;16.80;59.80;;;;;;5009526;28;20037;-69
2022/04/16 08:00:57;;;;;;;11.05;4.85;;;16.90;61.40;;;;;;5017378;28;20068;-70
2022/04/16 08:03:22;;;;;;;7.88;4.47;;;17.10;61.60;;;;;;4999009;28;20362;-70
2022/04/16 08:05:48;;;;;;;15.48;4.57;;;17.20;61.90;;;;;;4998294;28;20473;-69
2022/04/16 08:08:14;;;;;;;9.35;5.25;;;17.30;62.00;;;;;;4998158;28;20359;-69
2022/04/16 08:10:40;;;;;;;10.85;4.47;;;17.30;63.80;;;;;;4999303;28;20409;-69
2022/04/16 08:13:07;;;;;;;9.52;4.13;;;17.40;63.00;;;;;;4998265;28;20442;-70
2022/04/16 08:15:34;;;;;;;17.20;6.22;;;17.50;62.20;;;;;;4998218;28;20114;-69
2022/04/16 08:18:00;;;;;;;17.98;6.15;;;17.50;61.30;;;;;;4997516;28;20046;-69
2022/04/16 08:20:26;;;;;;;11.52;5.38;;;17.60;61.30;;;;;;4998291;28;20080;-71
2022/04/16 08:22:52;;;;;;;22.92;5.60;;;17.50;61.40;;;;;;5017074;28;20105;-70
2022/04/16 08:27:48;;;;;;;15.32;5.68;;;17.40;61.80;;;;;;5008899;28;20046;-70
2022/04/16 08:30:15;;;;;;;9.35;4.57;;;17.50;62.10;;;;;;5016911;28;20047;-70
2022/04/16 08:32:41;;;;;;;11.90;4.97;;;17.50;62.30;;;;;;5016058;28;20146;-70
2022/04/16 08:35:09;;;;;;;13.60;5.18;;;17.40;62.10;;;;;;5016857;28;20107;-70
2022/04/16 08:37:34;;;;;;;15.20;4.78;;;17.40;62.00;;;;;;5016509;28;20041;-70
2022/04/16 08:40:00;;;;;;;13.88;5.45;;;17.40;62.20;;;;;;5012594;28;20062;-70
2022/04/16 08:42:26;;;;;;;12.70;4.65;;;17.40;62.40;;;;;;4997461;28;20096;-70
2022/04/16 08:44:52;;;;;;;28.33;6.40;;;17.30;62.40;;;;;;4997345;28;20100;-70
2022/04/16 08:47:19;;;;;;;12.52;4.78;;;17.40;62.50;;;;;;4997075;28;20347;-70
2022/04/16 08:49:45;;;;;;;17.08;4.30;;;17.40;62.70;;;;;;4997373;28;20081;-70
2022/04/16 08:52:11;;;;;;;7.80;4.35;;;17.40;62.70;;;;;;4997295;28;20414;-70
2022/04/16 08:54:39;;;;;;;9.13;4.20;;;17.40;62.70;;;;;;5006234;28;20046;-70
2022/04/16 08:57:05;;;;;;;14.32;4.47;;;17.40;63.50;;;;;;5012212;28;20042;-70
2022/04/16 08:59:31;;;;;;;13.23;4.80;;;17.40;62.90;;;;;;5003818;28;20454;-70
2022/04/16 09:01:59;;;;;;;18.20;4.35;;;17.40;62.70;;;;;;5010148;28;20061;-70
2022/04/16 09:04:31;;;;;;;11.52;4.05;;;17.40;62.70;;;;;;5007084;28;20089;-70
2022/04/16 09:07:02;;;;;;;10.98;3.40;;;17.40;62.70;;;;;;5003963;28;20067;-69
2022/04/16 09:09:29;;;;;;;9.60;3.72;;;17.40;62.70;;;;;;5009029;28;21296;-70
2022/04/16 09:11:55;;;;;;;9.90;3.50;;;17.40;62.70;;;;;;5009060;28;20088;-70
2022/04/16 09:14:33;;;;;;;8.30;3.97;;;17.40;62.70;;;;;;4979590;28;20058;-70
2022/04/16 09:16:59;;;;;;;10.23;3.40;;;17.40;62.70;;;;;;5011170;28;20133;-70
2022/04/16 09:19:29;;;;;;;6.65;3.17;;;17.40;62.60;;;;;;5009827;28;20073;-70
2022/04/16 09:21:55;;;;;;;8.15;3.92;;;17.40;62.60;;;;;;5015384;28;20112;-70
2022/04/16 09:24:20;;;;;;;5.38;3.13;;;17.40;62.60;;;;;;5011301;28;20034;-70
2022/04/16 09:26:49;;;;;;;10.13;3.78;;;17.40;62.50;;;;;;4996816;28;20100;-70
2022/04/16 09:29:16;;;;;;;6.25;3.00;;;17.40;62.50;;;;;;5000429;28;20058;-70
2022/04/16 09:31:48;;;;;;;8.40;3.00;;;17.40;62.60;;;;;;4979873;28;20061;-70
2022/04/16 09:34:18;;;;;;;8.80;2.95;;;17.40;62.70;;;;;;5011944;28;20378;-70
2022/04/16 09:36:44;;;;;;;6.97;2.83;;;17.40;62.70;;;;;;4987347;28;20481;-70
2022/04/16 09:39:11;;;;;;;5.15;3.40;;;17.40;62.50;;;;;;5004666;28;20049;-70
2022/04/16 09:41:40;;;;;;;6.18;2.88;;;17.40;62.70;;;;;;5005432;28;20046;-70
2022/04/16 09:44:21;;;;;;;8.00;3.05;;;17.40;62.60;;;;;;5006625;28;20450;-70
2022/04/16 09:46:49;;;;;;;6.30;3.25;;;17.40;62.70;;;;;;5008434;28;20108;-70
2022/04/16 09:49:23;;;;;;;5.97;3.40;;;17.40;61.80;;;;;;5112693;27;20375;-70
2022/04/16 09:51:49;;;;;;;4.30;3.38;;;17.40;62.00;;;;;;5112377;28;20043;-69
2022/04/16 09:54:17;;;;;;;5.43;3.78;;;17.40;61.20;;;;;;5112221;28;20440;-69
2022/04/16 09:56:46;;;;;;;4.57;3.00;;;17.40;58.10;;;;;;5118622;28;20336;-69
2022/04/16 09:59:16;;;;;;;8.07;3.35;;;17.30;58.00;;;;;;5111444;28;20051;-69
2022/04/16 10:01:47;;;;;;;5.47;3.15;;;17.30;58.50;;;;;;5111954;28;20044;-69
2022/04/16 10:04:17;;;;;;;5.40;3.15;;;17.30;59.10;;;;;;5111387;28;20509;-69
2022/04/16 10:06:44;;;;;;;5.65;3.17;;;17.30;59.50;;;;;;5112405;28;20382;-69
2022/04/16 10:09:13;;;;;;;4.38;2.60;;;17.30;59.30;;;;;;5111759;28;20048;-69
2022/04/16 10:14:52;;;;;;;5.35;2.72;;;17.30;59.20;;;;;;5111477;28;20052;-69
2022/04/16 10:17:18;;;;;;;3.58;2.10;;;17.30;59.40;;;;;;5111806;28;20044;-70
2022/04/16 10:19:47;;;;;;;4.07;2.20;;;17.30;59.50;;;;;;5112103;28;20065;-69
2022/04/16 10:22:27;;;;;;;6.78;2.13;;;17.30;59.50;;;;;;5091690;28;20048;-70
2022/04/16 10:24:56;;;;;;;6.10;2.40;;;17.40;60.20;;;;;;5108309;28;20119;-71
2022/04/16 10:27:31;;;;;;;3.63;1.88;;;17.40;60.30;;;;;;5108613;28;20438;-70
2022/04/16 10:30:00;;;;;;;5.38;2.30;;;17.50;60.70;;;;;;5112015;28;20040;-72
2022/04/16 10:32:43;;;;;;;5.10;2.72;;;17.50;60.90;;;;;;5111648;28;20036;-71
2022/04/16 10:35:14;;;;;;;3.85;2.45;;;17.50;62.10;;;;;;5111680;28;20113;-70
2022/04/16 10:37:42;;;;;;;9.43;2.53;;;17.60;62.60;;;;;;5111265;28;20044;-72
2022/04/16 10:40:21;;;;;;;6.07;2.08;;;17.60;63.40;;;;;;5111456;28;20127;-70
2022/04/16 10:43:00;;;;;;;3.92;1.88;;;17.70;63.70;;;;;;5111510;28;20110;-69
2022/04/16 10:45:26;;;;;;;5.47;1.80;;;17.60;61.40;;;;;;5111373;28;20398;-71
2022/04/16 10:47:54;;;;;;;7.10;2.22;;;17.70;61.30;;;;;;5110519;28;20098;-69
2022/04/16 10:50:21;;;;;;;4.78;2.22;;;17.60;61.20;;;;;;5090294;28;20052;-69
2022/04/16 10:52:57;;;;;;;2.42;1.65;;;17.60;61.20;;;;;;5110773;28;20424;-69
2022/04/16 10:55:30;;;;;;;3.30;1.98;;;17.60;61.00;;;;;;5104561;28;20086;-69
2022/04/16 10:58:00;;;;;;;2.88;1.67;;;17.60;61.10;;;;;;5102666;28;20040;-69
2022/04/16 11:00:41;;;;;;;7.18;1.70;;;17.60;60.80;;;;;;5081353;28;20112;-69
2022/04/16 11:03:30;;;;;;;4.25;1.55;;;17.60;60.60;;;;;;5097691;28;20051;-69
2022/04/16 11:06:05;;;;;;;3.38;1.60;;;17.60;60.70;;;;;;5096800;28;20401;-69
2022/04/16 11:08:34;;;;;;;3.10;1.33;;;17.60;60.80;;;;;;5079312;28;20048;-70
2022/04/16 11:11:02;;;;;;;3.13;1.60;;;17.60;60.50;;;;;;5096172;28;20048;-69
2022/04/16 11:13:32;;;;;;;4.70;1.85;;;17.50;60.30;;;;;;5097232;28;20055;-70
2022/04/16 11:15:58;;;;;;;4.65;1.88;;;17.60;59.90;;;;;;5093999;28;20679;-69
2022/04/16 11:18:44;;;;;;;3.13;1.48;;;17.50;60.10;;;;;;5097121;28;20058;-70
2022/04/16 11:21:19;;;;;;;7.32;1.88;;;17.50;60.40;;;;;;5092846;28;20052;-70
2022/04/16 11:23:50;;;;;;;2.20;1.35;;;17.50;60.50;;;;;;5096141;28;20051;-70
2022/04/16 11:34:32;;;;;;;3.45;1.27;;;17.60;60.80;;;;;;5090248;28;20051;-70
2022/04/16 11:36:59;;;;;;;3.17;1.38;;;17.60;60.70;;;;;;5096389;28;20047;-69
2022/04/16 11:39:27;;;;;;;3.80;1.50;;;17.60;60.60;;;;;;5096528;28;20052;-70
2022/04/16 11:41:58;;;;;;;5.82;1.45;;;17.60;60.50;;;;;;5096480;28;20059;-70
2022/04/16 11:44:30;;;;;;;3.92;1.80;;;17.50;60.30;;;;;;5092283;28;20044;-70
2022/04/16 11:46:55;;;;;;;2.83;1.30;;;17.50;60.20;;;;;;5096168;28;20051;-70
2022/04/16 11:49:22;;;;;;;2.85;1.27;;;17.50;60.20;;;;;;5096779;28;20352;-70
2022/04/16 11:51:48;;;;;;;4.63;1.50;;;17.50;60.10;;;;;;5096554;28;20040;-70
2022/04/16 11:54:14;;;;;;;3.58;1.70;;;17.50;60.80;;;;;;5078585;28;20052;-70
2022/04/16 11:56:49;;;;;;;6.03;1.85;;;17.50;60.10;;;;;;5095936;28;20047;-71
2022/04/16 11:59:23;;;;;;;2.47;1.38;;;17.50;60.00;;;;;;5092357;28;20048;-70
2022/04/16 12:02:06;;;;;;;2.88;1.25;;;17.50;60.00;;;;;;5095905;28;20040;-70
2022/04/16 12:04:43;;;;;;;2.45;1.58;;;17.50;60.00;;;;;;5093606;28;20044;-71
2022/04/16 12:07:09;;;;;;;1.75;1.10;;;17.50;60.00;;;;;;5095343;28;20044;-71
2022/04/16 12:09:35;;;;;;;2.72;1.30;;;17.50;60.10;;;;;;5096262;28;20040;-71
2022/04/16 12:12:05;;;;;;;7.43;1.38;;;17.50;60.20;;;;;;5094853;28;20451;-71
2022/04/16 12:14:32;;;;;;;3.08;1.10;;;17.50;60.10;;;;;;5087203;28;20032;-71
2022/04/16 12:16:59;;;;;;;4.32;1.17;;;17.50;60.00;;;;;;5092064;28;20479;-71
2022/04/16 12:19:31;;;;;;;2.97;1.30;;;17.50;60.00;;;;;;5094608;28;20044;-70
2022/04/16 12:21:57;;;;;;;3.67;1.50;;;17.50;60.20;;;;;;5075342;28;20109;-70
2022/04/16 12:24:27;;;;;;;2.30;1.10;;;17.50;60.20;;;;;;5092949;28;20040;-71
2022/04/16 12:26:53;;;;;;;2.22;1.20;;;17.40;60.80;;;;;;5095864;28;20126;-71
2022/04/16 12:29:26;;;;;;;1.52;0.77;;;17.50;60.30;;;;;;5103271;28;20131;-70
2022/04/16 12:31:58;;;;;;;1.87;1.03;;;17.40;60.80;;;;;;5090118;28;20051;-70
2022/04/16 12:34:25;;;;;;;2.83;0.88;;;17.40;60.20;;;;;;5091312;28;20052;-70
2022/04/16 12:36:51;;;;;;;2.03;1.13;;;17.40;60.20;;;;;;5097202;28;20048;-70
2022/04/16 12:39:17;;;;;;;2.28;1.10;;;17.40;60.30;;;;;;5098217;28;20048;-70
2022/04/16 12:41:43;;;;;;;2.70;1.23;;;17.50;60.20;;;;;;5081454;28;20048;-70
2022/04/16 12:44:09;;;;;;;2.42;0.98;;;17.50;60.20;;;;;;5099648;28;20126;-71
2022/04/16 12:46:35;;;;;;;3.20;1.30;;;17.40;60.10;;;;;;5099562;28;20127;-71
2022/04/16 12:49:00;;;;;;;1.42;0.85;;;17.50;60.10;;;;;;5101703;28;20040;-71
2022/04/16 12:51:29;;;;;;;2.75;1.23;;;17.50;60.10;;;;;;5089639;28;20049;-72
2022/04/16 12:53:55;;;;;;;3.45;1.05;;;17.50;60.00;;;;;;5094317;28;20048;-69
2022/04/16 12:56:20;;;;;;;3.22;1.00;;;17.50;60.00;;;;;;5092432;28;20108;-70
2022/04/16 12:58:46;;;;;;;3.80;1.15;;;17.50;60.00;;;;;;5097579;28;20383;-69
2022/04/16 13:01:14;;;;;;;2.45;0.80;;;17.50;60.00;;;;;;5096142;28;20069;-70
2022/04/16 13:03:42;;;;;;;1.30;0.85;;;17.50;60.00;;;;;;5094136;28;20099;-70
2022/04/16 13:06:11;;;;;;;2.97;0.93;;;17.50;59.40;;;;;;5094687;28;20109;-70
2022/04/16 13:08:39;;;;;;;2.20;1.13;;;17.50;56.60;;;;;;5094095;28;20105;-70
2022/04/16 13:11:07;;;;;;;2.45;0.80;;;17.50;55.30;;;;;;5092268;28;20531;-68